sensor_id;sensor_type;location;lat;lon;timestamp;P1;durP1;ratioP1;P2;durP2;ratioP2
2706;SDS011;7819;48.046;7.642;2023-03-08T00:02:12;13.33;;;9.33;;
2706;SDS011;7819;48.046;7.642;2023-03-08T00:04:37;13.70;;;9.90;;
2706;SDS011;7819;48.046;7.642;2023-03-08T00:07:02;12.10;;;7.83;;
2706;SDS011;7819;48.046;7.642;2023-03-08T00:09:27;14.13;;;8.50;;
2706;SDS011;7819;48.046;7.642;2023-03-08T00:11:53;13.37;;;9.33;;
2706;SDS011;7819;48.046;7.642;2023-03-08T00:14:18;16.47;;;9.07;;
2706;SDS011;7819;48.046;7.642;2023-03-08T00:16:44;10.97;;;8.03;;
2706;SDS011;7819;48.046;7.642;2023-03-08T00:19:10;14.10;;;9.23;;
2706;SDS011;7819;48.046;7.642;2023-03-08T00:21:35;17.00;;;9.73;;
2706;SDS011;7819;48.046;7.642;2023-03-08T00:24:00;12.63;;;8.87;;
2706;SDS011;7819;48.046;7.642;2023-03-08T00:26:25;12.37;;;8.70;;
2706;SDS011;7819;48.046;7.642;2023-03-08T00:28:50;12.20;;;9.10;;
2706;SDS011;7819;48.046;7.642;2023-03-08T00:31:16;12.83;;;9.47;;
2706;SDS011;7819;48.046;7.642;2023-03-08T00:33:42;15.87;;;9.50;;
2706;SDS011;7819;48.046;7.642;2023-03-08T00:36:09;13.90;;;9.70;;
2706;SDS011;7819;48.046;7.642;2023-03-08T00:38:37;16.40;;;8.97;;
2706;SDS011;7819;48.046;7.642;2023-03-08T00:41:02;13.63;;;9.47;;
2706;SDS011;7819;48.046;7.642;2023-03-08T00:43:27;16.87;;;9.13;;
2706;SDS011;7819;48.046;7.642;2023-03-08T00:45:53;16.40;;;10.30;;
2706;SDS011;7819;48.046;7.642;2023-03-08T00:48:18;13.03;;;8.40;;
2706;SDS011;7819;48.046;7.642;2023-03-08T00:50:43;15.33;;;9.90;;
2706;SDS011;7819;48.046;7.642;2023-03-08T00:53:09;13.20;;;9.53;;
2706;SDS011;7819;48.046;7.642;2023-03-08T00:55:34;14.13;;;9.80;;
2706;SDS011;7819;48.046;7.642;2023-03-08T00:57:59;12.97;;;8.83;;
2706;SDS011;7819;48.046;7.642;2023-03-08T01:00:25;11.10;;;9.97;;
2706;SDS011;7819;48.046;7.642;2023-03-08T01:02:50;12.80;;;9.40;;
2706;SDS011;7819;48.046;7.642;2023-03-08T01:05:15;14.77;;;9.60;;
2706;SDS011;7819;48.046;7.642;2023-03-08T01:07:40;11.80;;;8.90;;
2706;SDS011;7819;48.046;7.642;2023-03-08T01:10:05;12.37;;;8.57;;
2706;SDS011;7819;48.046;7.642;2023-03-08T01:12:32;13.43;;;9.60;;
2706;SDS011;7819;48.046;7.642;2023-03-08T01:14:57;15.00;;;10.13;;
2706;SDS011;7819;48.046;7.642;2023-03-08T01:17:22;12.20;;;9.17;;
2706;SDS011;7819;48.046;7.642;2023-03-08T01:19:48;11.70;;;7.90;;
2706;SDS011;7819;48.046;7.642;2023-03-08T01:22:13;14.77;;;9.50;;
2706;SDS011;7819;48.046;7.642;2023-03-08T01:24:38;11.37;;;8.33;;
2706;SDS011;7819;48.046;7.642;2023-03-08T01:27:03;17.07;;;10.77;;
2706;SDS011;7819;48.046;7.642;2023-03-08T01:29:28;11.87;;;8.63;;
2706;SDS011;7819;48.046;7.642;2023-03-08T01:31:54;13.20;;;9.67;;
2706;SDS011;7819;48.046;7.642;2023-03-08T01:34:19;12.23;;;8.47;;
2706;SDS011;7819;48.046;7.642;2023-03-08T01:36:45;12.50;;;8.80;;
2706;SDS011;7819;48.046;7.642;2023-03-08T01:39:10;10.20;;;8.40;;
2706;SDS011;7819;48.046;7.642;2023-03-08T01:41:35;19.30;;;7.77;;
2706;SDS011;7819;48.046;7.642;2023-03-08T01:44:01;14.47;;;9.40;;
2706;SDS011;7819;48.046;7.642;2023-03-08T01:46:27;14.27;;;9.90;;
2706;SDS011;7819;48.046;7.642;2023-03-08T01:51:38;14.60;;;8.80;;
2706;SDS011;7819;48.046;7.642;2023-03-08T01:54:05;13.00;;;9.37;;
2706;SDS011;7819;48.046;7.642;2023-03-08T01:56:32;10.87;;;8.47;;
2706;SDS011;7819;48.046;7.642;2023-03-08T01:58:57;9.83;;;8.10;;
2706;SDS011;7819;48.046;7.642;2023-03-08T02:01:22;14.73;;;8.73;;
2706;SDS011;7819;48.046;7.642;2023-03-08T02:03:48;10.30;;;7.60;;
2706;SDS011;7819;48.046;7.642;2023-03-08T02:06:14;11.70;;;8.20;;
2706;SDS011;7819;48.046;7.642;2023-03-08T02:08:39;13.20;;;8.50;;
2706;SDS011;7819;48.046;7.642;2023-03-08T02:11:06;12.30;;;8.47;;
2706;SDS011;7819;48.046;7.642;2023-03-08T02:13:31;11.10;;;7.77;;
2706;SDS011;7819;48.046;7.642;2023-03-08T02:15:57;12.70;;;8.00;;
2706;SDS011;7819;48.046;7.642;2023-03-08T02:18:22;10.87;;;8.10;;
2706;SDS011;7819;48.046;7.642;2023-03-08T02:20:47;10.67;;;7.90;;
2706;SDS011;7819;48.046;7.642;2023-03-08T02:23:14;13.33;;;8.53;;
2706;SDS011;7819;48.046;7.642;2023-03-08T02:25:40;11.57;;;8.23;;
2706;SDS011;7819;48.046;7.642;2023-03-08T02:28:06;12.27;;;7.60;;
2706;SDS011;7819;48.046;7.642;2023-03-08T02:30:34;12.07;;;9.20;;
2706;SDS011;7819;48.046;7.642;2023-03-08T02:32:59;11.73;;;8.50;;
2706;SDS011;7819;48.046;7.642;2023-03-08T02:35:24;12.93;;;9.17;;
2706;SDS011;7819;48.046;7.642;2023-03-08T02:37:50;9.63;;;7.73;;
2706;SDS011;7819;48.046;7.642;2023-03-08T02:40:15;14.40;;;9.00;;
2706;SDS011;7819;48.046;7.642;2023-03-08T02:42:40;14.43;;;9.53;;
2706;SDS011;7819;48.046;7.642;2023-03-08T02:45:06;12.03;;;9.00;;
2706;SDS011;7819;48.046;7.642;2023-03-08T02:47:31;14.17;;;8.67;;
2706;SDS011;7819;48.046;7.642;2023-03-08T02:49:57;11.00;;;8.70;;
2706;SDS011;7819;48.046;7.642;2023-03-08T02:52:22;13.80;;;8.93;;
2706;SDS011;7819;48.046;7.642;2023-03-08T02:54:47;11.03;;;8.60;;
2706;SDS011;7819;48.046;7.642;2023-03-08T02:57:12;12.37;;;9.07;;
2706;SDS011;7819;48.046;7.642;2023-03-08T02:59:37;12.77;;;8.73;;
2706;SDS011;7819;48.046;7.642;2023-03-08T03:02:03;10.90;;;8.20;;
2706;SDS011;7819;48.046;7.642;2023-03-08T03:04:29;12.67;;;8.70;;
2706;SDS011;7819;48.046;7.642;2023-03-08T03:06:54;12.33;;;9.07;;
2706;SDS011;7819;48.046;7.642;2023-03-08T03:09:20;13.07;;;7.90;;
2706;SDS011;7819;48.046;7.642;2023-03-08T03:11:45;13.60;;;9.60;;
2706;SDS011;7819;48.046;7.642;2023-03-08T03:14:10;10.80;;;7.93;;
2706;SDS011;7819;48.046;7.642;2023-03-08T03:16:35;11.90;;;8.33;;
2706;SDS011;7819;48.046;7.642;2023-03-08T03:19:01;12.43;;;9.17;;
2706;SDS011;7819;48.046;7.642;2023-03-08T03:21:26;13.80;;;8.80;;
2706;SDS011;7819;48.046;7.642;2023-03-08T03:23:52;13.80;;;9.57;;
2706;SDS011;7819;48.046;7.642;2023-03-08T03:26:18;10.40;;;8.13;;
2706;SDS011;7819;48.046;7.642;2023-03-08T03:28:44;12.10;;;8.10;;
2706;SDS011;7819;48.046;7.642;2023-03-08T03:31:10;11.17;;;8.90;;
2706;SDS011;7819;48.046;7.642;2023-03-08T03:33:36;14.47;;;8.40;;
2706;SDS011;7819;48.046;7.642;2023-03-08T03:36:01;9.80;;;8.40;;
2706;SDS011;7819;48.046;7.642;2023-03-08T03:38:27;8.73;;;7.17;;
2706;SDS011;7819;48.046;7.642;2023-03-08T03:41:02;13.00;;;7.97;;
2706;SDS011;7819;48.046;7.642;2023-03-08T03:43:28;11.77;;;9.03;;
2706;SDS011;7819;48.046;7.642;2023-03-08T03:45:57;13.90;;;10.17;;
2706;SDS011;7819;48.046;7.642;2023-03-08T03:48:23;11.10;;;8.20;;
2706;SDS011;7819;48.046;7.642;2023-03-08T03:51:22;15.23;;;8.40;;
2706;SDS011;7819;48.046;7.642;2023-03-08T03:53:40;15.87;;;9.17;;
2706;SDS011;7819;48.046;7.642;2023-03-08T03:58:34;12.10;;;8.20;;
2706;SDS011;7819;48.046;7.642;2023-03-08T04:00:59;13.67;;;9.40;;
2706;SDS011;7819;48.046;7.642;2023-03-08T04:03:24;12.83;;;8.50;;
2706;SDS011;7819;48.046;7.642;2023-03-08T04:05:50;12.90;;;8.70;;
2706;SDS011;7819;48.046;7.642;2023-03-08T04:08:15;16.90;;;9.93;;
2706;SDS011;7819;48.046;7.642;2023-03-08T04:10:40;16.27;;;8.10;;
2706;SDS011;7819;48.046;7.642;2023-03-08T04:13:06;12.87;;;9.10;;
2706;SDS011;7819;48.046;7.642;2023-03-08T04:15:31;13.73;;;9.13;;
2706;SDS011;7819;48.046;7.642;2023-03-08T04:17:56;10.73;;;7.90;;
2706;SDS011;7819;48.046;7.642;2023-03-08T04:20:22;11.50;;;8.53;;
2706;SDS011;7819;48.046;7.642;2023-03-08T04:22:47;17.60;;;10.07;;
2706;SDS011;7819;48.046;7.642;2023-03-08T04:25:12;12.17;;;8.97;;
2706;SDS011;7819;48.046;7.642;2023-03-08T04:27:37;13.20;;;9.53;;
2706;SDS011;7819;48.046;7.642;2023-03-08T04:30:02;16.60;;;8.70;;
2706;SDS011;7819;48.046;7.642;2023-03-08T04:32:29;9.87;;;7.57;;
2706;SDS011;7819;48.046;7.642;2023-03-08T04:34:54;12.00;;;9.00;;
2706;SDS011;7819;48.046;7.642;2023-03-08T04:37:20;15.20;;;10.30;;
2706;SDS011;7819;48.046;7.642;2023-03-08T04:39:45;13.00;;;8.43;;
2706;SDS011;7819;48.046;7.642;2023-03-08T04:42:11;11.30;;;8.30;;
2706;SDS011;7819;48.046;7.642;2023-03-08T04:44:36;13.90;;;8.73;;
2706;SDS011;7819;48.046;7.642;2023-03-08T04:47:01;15.47;;;10.10;;
2706;SDS011;7819;48.046;7.642;2023-03-08T04:49:26;10.97;;;8.67;;
2706;SDS011;7819;48.046;7.642;2023-03-08T04:51:52;13.70;;;8.30;;
2706;SDS011;7819;48.046;7.642;2023-03-08T04:54:17;14.93;;;9.40;;
2706;SDS011;7819;48.046;7.642;2023-03-08T04:56:42;13.00;;;8.60;;
2706;SDS011;7819;48.046;7.642;2023-03-08T04:59:07;12.10;;;8.83;;
2706;SDS011;7819;48.046;7.642;2023-03-08T05:01:32;11.77;;;8.87;;
2706;SDS011;7819;48.046;7.642;2023-03-08T05:03:58;12.27;;;8.90;;
2706;SDS011;7819;48.046;7.642;2023-03-08T05:06:24;12.60;;;9.07;;
2706;SDS011;7819;48.046;7.642;2023-03-08T05:08:49;11.60;;;8.07;;
2706;SDS011;7819;48.046;7.642;2023-03-08T05:11:25;15.47;;;10.00;;
2706;SDS011;7819;48.046;7.642;2023-03-08T05:13:51;12.73;;;9.83;;
2706;SDS011;7819;48.046;7.642;2023-03-08T05:16:17;13.50;;;8.73;;
2706;SDS011;7819;48.046;7.642;2023-03-08T05:18:42;13.37;;;8.93;;
2706;SDS011;7819;48.046;7.642;2023-03-08T05:21:15;12.90;;;9.30;;
2706;SDS011;7819;48.046;7.642;2023-03-08T05:23:40;12.40;;;8.17;;
2706;SDS011;7819;48.046;7.642;2023-03-08T05:26:06;10.80;;;8.60;;
2706;SDS011;7819;48.046;7.642;2023-03-08T05:28:32;12.83;;;9.00;;
2706;SDS011;7819;48.046;7.642;2023-03-08T05:31:01;13.87;;;9.00;;
2706;SDS011;7819;48.046;7.642;2023-03-08T05:33:27;18.30;;;8.27;;
2706;SDS011;7819;48.046;7.642;2023-03-08T05:35:53;11.70;;;7.63;;
2706;SDS011;7819;48.046;7.642;2023-03-08T05:38:19;12.57;;;9.17;;
2706;SDS011;7819;48.046;7.642;2023-03-08T05:40:44;12.87;;;9.20;;
2706;SDS011;7819;48.046;7.642;2023-03-08T05:43:09;13.20;;;9.30;;
2706;SDS011;7819;48.046;7.642;2023-03-08T05:45:34;11.07;;;8.13;;
2706;SDS011;7819;48.046;7.642;2023-03-08T05:47:59;10.80;;;8.50;;
2706;SDS011;7819;48.046;7.642;2023-03-08T05:50:25;11.60;;;8.33;;
2706;SDS011;7819;48.046;7.642;2023-03-08T05:52:50;15.87;;;8.80;;
2706;SDS011;7819;48.046;7.642;2023-03-08T05:55:15;11.60;;;8.20;;
2706;SDS011;7819;48.046;7.642;2023-03-08T05:57:40;14.77;;;8.40;;
2706;SDS011;7819;48.046;7.642;2023-03-08T06:00:06;13.73;;;8.00;;
2706;SDS011;7819;48.046;7.642;2023-03-08T06:02:31;10.73;;;7.57;;
2706;SDS011;7819;48.046;7.642;2023-03-08T06:04:56;11.73;;;7.47;;
2706;SDS011;7819;48.046;7.642;2023-03-08T06:07:22;12.00;;;7.23;;
2706;SDS011;7819;48.046;7.642;2023-03-08T06:09:47;10.73;;;7.77;;
2706;SDS011;7819;48.046;7.642;2023-03-08T06:12:12;14.20;;;8.57;;
2706;SDS011;7819;48.046;7.642;2023-03-08T06:14:37;11.73;;;7.20;;
2706;SDS011;7819;48.046;7.642;2023-03-08T06:17:02;10.77;;;7.10;;
2706;SDS011;7819;48.046;7.642;2023-03-08T06:19:28;11.77;;;7.70;;
2706;SDS011;7819;48.046;7.642;2023-03-08T06:21:53;14.83;;;7.70;;
2706;SDS011;7819;48.046;7.642;2023-03-08T06:24:18;10.23;;;7.97;;
2706;SDS011;7819;48.046;7.642;2023-03-08T06:26:43;12.40;;;8.40;;
2706;SDS011;7819;48.046;7.642;2023-03-08T06:29:09;11.87;;;8.00;;
2706;SDS011;7819;48.046;7.642;2023-03-08T06:31:34;12.33;;;8.23;;
2706;SDS011;7819;48.046;7.642;2023-03-08T06:33:59;15.10;;;9.13;;
2706;SDS011;7819;48.046;7.642;2023-03-08T06:36:24;14.17;;;9.40;;
2706;SDS011;7819;48.046;7.642;2023-03-08T06:38:49;13.23;;;8.60;;
2706;SDS011;7819;48.046;7.642;2023-03-08T06:41:15;10.30;;;7.27;;
2706;SDS011;7819;48.046;7.642;2023-03-08T06:43:41;13.17;;;8.40;;
2706;SDS011;7819;48.046;7.642;2023-03-08T06:46:07;15.90;;;10.30;;
2706;SDS011;7819;48.046;7.642;2023-03-08T06:48:34;10.80;;;7.50;;
2706;SDS011;7819;48.046;7.642;2023-03-08T06:50:59;12.10;;;9.30;;
2706;SDS011;7819;48.046;7.642;2023-03-08T06:53:25;11.23;;;8.10;;
2706;SDS011;7819;48.046;7.642;2023-03-08T06:55:50;17.87;;;11.27;;
2706;SDS011;7819;48.046;7.642;2023-03-08T06:58:16;11.73;;;8.07;;
2706;SDS011;7819;48.046;7.642;2023-03-08T07:00:41;14.50;;;10.60;;
2706;SDS011;7819;48.046;7.642;2023-03-08T07:03:06;13.70;;;8.93;;
2706;SDS011;7819;48.046;7.642;2023-03-08T07:05:32;13.20;;;8.80;;
2706;SDS011;7819;48.046;7.642;2023-03-08T07:07:57;13.23;;;10.47;;
2706;SDS011;7819;48.046;7.642;2023-03-08T07:10:23;13.40;;;10.13;;
2706;SDS011;7819;48.046;7.642;2023-03-08T07:12:48;12.23;;;7.10;;
2706;SDS011;7819;48.046;7.642;2023-03-08T07:15:16;13.37;;;8.40;;
2706;SDS011;7819;48.046;7.642;2023-03-08T07:17:43;13.33;;;8.17;;
2706;SDS011;7819;48.046;7.642;2023-03-08T07:20:08;10.87;;;8.37;;
2706;SDS011;7819;48.046;7.642;2023-03-08T07:22:34;24.23;;;18.27;;
2706;SDS011;7819;48.046;7.642;2023-03-08T07:24:59;19.20;;;16.53;;
2706;SDS011;7819;48.046;7.642;2023-03-08T07:27:24;13.60;;;8.83;;
2706;SDS011;7819;48.046;7.642;2023-03-08T07:29:50;32.20;;;24.10;;
2706;SDS011;7819;48.046;7.642;2023-03-08T07:32:15;11.90;;;8.87;;
2706;SDS011;7819;48.046;7.642;2023-03-08T07:34:40;13.50;;;9.87;;
2706;SDS011;7819;48.046;7.642;2023-03-08T07:37:10;20.00;;;15.13;;
2706;SDS011;7819;48.046;7.642;2023-03-08T07:39:35;12.57;;;9.43;;
2706;SDS011;7819;48.046;7.642;2023-03-08T07:42:00;11.13;;;9.10;;
2706;SDS011;7819;48.046;7.642;2023-03-08T07:44:26;12.73;;;10.50;;
2706;SDS011;7819;48.046;7.642;2023-03-08T07:46:51;11.80;;;7.97;;
2706;SDS011;7819;48.046;7.642;2023-03-08T07:49:16;19.40;;;12.60;;
2706;SDS011;7819;48.046;7.642;2023-03-08T07:51:41;9.80;;;6.83;;
2706;SDS011;7819;48.046;7.642;2023-03-08T07:54:09;8.03;;;6.60;;
2706;SDS011;7819;48.046;7.642;2023-03-08T07:56:35;11.70;;;6.83;;
2706;SDS011;7819;48.046;7.642;2023-03-08T07:59:00;8.77;;;5.57;;
2706;SDS011;7819;48.046;7.642;2023-03-08T08:01:25;7.63;;;6.03;;
2706;SDS011;7819;48.046;7.642;2023-03-08T08:03:51;7.47;;;6.43;;
2706;SDS011;7819;48.046;7.642;2023-03-08T08:06:16;8.30;;;5.10;;
2706;SDS011;7819;48.046;7.642;2023-03-08T08:08:41;9.80;;;5.70;;
2706;SDS011;7819;48.046;7.642;2023-03-08T08:11:10;6.33;;;4.83;;
2706;SDS011;7819;48.046;7.642;2023-03-08T08:13:36;9.60;;;7.70;;
2706;SDS011;7819;48.046;7.642;2023-03-08T08:16:02;7.57;;;6.13;;
2706;SDS011;7819;48.046;7.642;2023-03-08T08:18:27;10.10;;;8.77;;
2706;SDS011;7819;48.046;7.642;2023-03-08T08:21:06;12.87;;;9.00;;
2706;SDS011;7819;48.046;7.642;2023-03-08T08:23:32;21.53;;;17.30;;
2706;SDS011;7819;48.046;7.642;2023-03-08T08:25:57;18.97;;;15.23;;
2706;SDS011;7819;48.046;7.642;2023-03-08T08:28:23;7.70;;;6.03;;
2706;SDS011;7819;48.046;7.642;2023-03-08T08:30:59;8.23;;;6.13;;
2706;SDS011;7819;48.046;7.642;2023-03-08T08:33:25;9.77;;;6.17;;
2706;SDS011;7819;48.046;7.642;2023-03-08T08:35:51;11.50;;;7.83;;
2706;SDS011;7819;48.046;7.642;2023-03-08T08:38:16;10.57;;;8.73;;
2706;SDS011;7819;48.046;7.642;2023-03-08T08:40:41;17.00;;;13.27;;
2706;SDS011;7819;48.046;7.642;2023-03-08T08:43:07;7.97;;;5.83;;
2706;SDS011;7819;48.046;7.642;2023-03-08T08:45:32;12.40;;;9.60;;
2706;SDS011;7819;48.046;7.642;2023-03-08T08:47:57;11.33;;;6.90;;
2706;SDS011;7819;48.046;7.642;2023-03-08T08:50:22;6.53;;;4.73;;
2706;SDS011;7819;48.046;7.642;2023-03-08T08:52:48;5.73;;;4.30;;
2706;SDS011;7819;48.046;7.642;2023-03-08T08:55:13;7.77;;;6.60;;
2706;SDS011;7819;48.046;7.642;2023-03-08T08:57:38;7.10;;;6.27;;
2706;SDS011;7819;48.046;7.642;2023-03-08T09:00:03;8.40;;;5.33;;
2706;SDS011;7819;48.046;7.642;2023-03-08T09:02:32;16.30;;;6.80;;
2706;SDS011;7819;48.046;7.642;2023-03-08T09:04:57;15.40;;;9.70;;
2706;SDS011;7819;48.046;7.642;2023-03-08T09:07:22;8.60;;;7.23;;
2706;SDS011;7819;48.046;7.642;2023-03-08T09:09:48;8.43;;;6.23;;
2706;SDS011;7819;48.046;7.642;2023-03-08T09:12:13;6.23;;;5.10;;
2706;SDS011;7819;48.046;7.642;2023-03-08T09:14:38;8.37;;;5.70;;
2706;SDS011;7819;48.046;7.642;2023-03-08T09:17:06;7.60;;;5.57;;
2706;SDS011;7819;48.046;7.642;2023-03-08T09:19:31;6.37;;;4.47;;
2706;SDS011;7819;48.046;7.642;2023-03-08T09:21:57;7.87;;;6.87;;
2706;SDS011;7819;48.046;7.642;2023-03-08T09:24:22;14.53;;;10.70;;
2706;SDS011;7819;48.046;7.642;2023-03-08T09:26:47;7.30;;;6.43;;
2706;SDS011;7819;48.046;7.642;2023-03-08T09:29:13;8.87;;;6.47;;
2706;SDS011;7819;48.046;7.642;2023-03-08T09:31:38;11.07;;;8.37;;
2706;SDS011;7819;48.046;7.642;2023-03-08T09:34:04;9.67;;;6.57;;
2706;SDS011;7819;48.046;7.642;2023-03-08T09:36:32;5.50;;;4.50;;
2706;SDS011;7819;48.046;7.642;2023-03-08T09:38:57;5.33;;;4.03;;
2706;SDS011;7819;48.046;7.642;2023-03-08T09:44:03;6.50;;;5.10;;
2706;SDS011;7819;48.046;7.642;2023-03-08T09:46:35;7.70;;;5.50;;
2706;SDS011;7819;48.046;7.642;2023-03-08T09:49:02;4.93;;;4.00;;
2706;SDS011;7819;48.046;7.642;2023-03-08T09:51:31;4.93;;;4.30;;
2706;SDS011;7819;48.046;7.642;2023-03-08T09:53:58;6.83;;;4.90;;
2706;SDS011;7819;48.046;7.642;2023-03-08T09:56:31;6.03;;;3.50;;
2706;SDS011;7819;48.046;7.642;2023-03-08T10:01:36;5.43;;;3.60;;
2706;SDS011;7819;48.046;7.642;2023-03-08T10:06:36;4.90;;;3.93;;
2706;SDS011;7819;48.046;7.642;2023-03-08T10:09:09;8.27;;;3.90;;
2706;SDS011;7819;48.046;7.642;2023-03-08T10:11:45;4.60;;;3.57;;
2706;SDS011;7819;48.046;7.642;2023-03-08T10:14:17;4.60;;;3.47;;
2706;SDS011;7819;48.046;7.642;2023-03-08T10:16:44;3.23;;;2.93;;
2706;SDS011;7819;48.046;7.642;2023-03-08T10:21:40;9.30;;;2.93;;
2706;SDS011;7819;48.046;7.642;2023-03-08T10:26:48;3.60;;;3.00;;
2706;SDS011;7819;48.046;7.642;2023-03-08T10:29:14;5.07;;;3.57;;
2706;SDS011;7819;48.046;7.642;2023-03-08T10:31:40;3.63;;;2.60;;
2706;SDS011;7819;48.046;7.642;2023-03-08T10:34:11;4.00;;;2.90;;
2706;SDS011;7819;48.046;7.642;2023-03-08T10:36:45;6.00;;;3.40;;
2706;SDS011;7819;48.046;7.642;2023-03-08T10:39:10;8.00;;;3.10;;
2706;SDS011;7819;48.046;7.642;2023-03-08T10:41:43;4.20;;;3.50;;
2706;SDS011;7819;48.046;7.642;2023-03-08T10:44:12;4.97;;;4.50;;
2706;SDS011;7819;48.046;7.642;2023-03-08T10:46:44;4.17;;;3.30;;
2706;SDS011;7819;48.046;7.642;2023-03-08T10:49:17;7.40;;;3.80;;
2706;SDS011;7819;48.046;7.642;2023-03-08T10:51:56;3.13;;;1.77;;
2706;SDS011;7819;48.046;7.642;2023-03-08T10:54:22;4.00;;;2.30;;
2706;SDS011;7819;48.046;7.642;2023-03-08T10:56:57;3.20;;;1.97;;
2706;SDS011;7819;48.046;7.642;2023-03-08T10:59:25;2.30;;;1.77;;
2706;SDS011;7819;48.046;7.642;2023-03-08T11:01:57;2.33;;;1.43;;
2706;SDS011;7819;48.046;7.642;2023-03-08T11:04:24;3.87;;;3.30;;
2706;SDS011;7819;48.046;7.642;2023-03-08T11:06:49;3.30;;;2.93;;
2706;SDS011;7819;48.046;7.642;2023-03-08T11:09:25;3.20;;;1.70;;
2706;SDS011;7819;48.046;7.642;2023-03-08T11:11:52;5.33;;;3.43;;
2706;SDS011;7819;48.046;7.642;2023-03-08T11:14:17;2.90;;;2.00;;
2706;SDS011;7819;48.046;7.642;2023-03-08T11:27:01;2.40;;;2.20;;
2706;SDS011;7819;48.046;7.642;2023-03-08T11:32:06;3.17;;;2.53;;
2706;SDS011;7819;48.046;7.642;2023-03-08T11:34:45;1.80;;;1.50;;
2706;SDS011;7819;48.046;7.642;2023-03-08T11:37:21;4.97;;;4.40;;
2706;SDS011;7819;48.046;7.642;2023-03-08T11:50:28;1.47;;;1.30;;
2706;SDS011;7819;48.046;7.642;2023-03-08T11:55:27;2.43;;;1.00;;
2706;SDS011;7819;48.046;7.642;2023-03-08T11:58:03;1.27;;;1.03;;
2706;SDS011;7819;48.046;7.642;2023-03-08T12:00:36;1.90;;;1.00;;
2706;SDS011;7819;48.046;7.642;2023-03-08T12:03:05;3.20;;;1.23;;
2706;SDS011;7819;48.046;7.642;2023-03-08T12:05:34;1.60;;;1.03;;
2706;SDS011;7819;48.046;7.642;2023-03-08T12:08:23;1.30;;;1.20;;
2706;SDS011;7819;48.046;7.642;2023-03-08T12:10:57;2.07;;;1.87;;
2706;SDS011;7819;48.046;7.642;2023-03-08T12:15:59;2.30;;;0.70;;
2706;SDS011;7819;48.046;7.642;2023-03-08T12:21:23;3.33;;;1.57;;
2706;SDS011;7819;48.046;7.642;2023-03-08T12:26:37;1.30;;;0.80;;
2706;SDS011;7819;48.046;7.642;2023-03-08T12:29:10;1.20;;;0.77;;
2706;SDS011;7819;48.046;7.642;2023-03-08T12:31:40;1.30;;;0.90;;
2706;SDS011;7819;48.046;7.642;2023-03-08T12:36:47;1.10;;;0.50;;
2706;SDS011;7819;48.046;7.642;2023-03-08T12:39:26;0.80;;;0.60;;
2706;SDS011;7819;48.046;7.642;2023-03-08T12:41:55;1.00;;;0.50;;
2706;SDS011;7819;48.046;7.642;2023-03-08T12:44:22;0.90;;;0.50;;
2706;SDS011;7819;48.046;7.642;2023-03-08T12:46:54;3.00;;;0.90;;
2706;SDS011;7819;48.046;7.642;2023-03-08T12:49:28;5.23;;;0.60;;
2706;SDS011;7819;48.046;7.642;2023-03-08T12:51:58;0.83;;;0.50;;
2706;SDS011;7819;48.046;7.642;2023-03-08T12:54:24;1.33;;;0.67;;
2706;SDS011;7819;48.046;7.642;2023-03-08T12:56:53;1.10;;;0.67;;
2706;SDS011;7819;48.046;7.642;2023-03-08T13:01:44;1.70;;;1.40;;
2706;SDS011;7819;48.046;7.642;2023-03-08T13:07:00;1.70;;;1.30;;
2706;SDS011;7819;48.046;7.642;2023-03-08T13:09:29;1.70;;;1.30;;
2706;SDS011;7819;48.046;7.642;2023-03-08T13:14:46;1.30;;;0.70;;
2706;SDS011;7819;48.046;7.642;2023-03-08T13:17:32;1.33;;;0.97;;
2706;SDS011;7819;48.046;7.642;2023-03-08T13:23:04;3.03;;;1.87;;
2706;SDS011;7819;48.046;7.642;2023-03-08T13:28:04;1.37;;;1.20;;
2706;SDS011;7819;48.046;7.642;2023-03-08T13:30:34;1.97;;;1.77;;
2706;SDS011;7819;48.046;7.642;2023-03-08T13:32:59;1.70;;;1.50;;
2706;SDS011;7819;48.046;7.642;2023-03-08T13:35:25;1.83;;;1.70;;
2706;SDS011;7819;48.046;7.642;2023-03-08T13:37:55;2.30;;;1.97;;
2706;SDS011;7819;48.046;7.642;2023-03-08T13:40:21;1.40;;;1.00;;
2706;SDS011;7819;48.046;7.642;2023-03-08T13:43:00;1.93;;;1.10;;
2706;SDS011;7819;48.046;7.642;2023-03-08T13:45:27;6.20;;;4.13;;
2706;SDS011;7819;48.046;7.642;2023-03-08T13:47:53;5.37;;;3.30;;
2706;SDS011;7819;48.046;7.642;2023-03-08T13:50:28;3.87;;;2.37;;
2706;SDS011;7819;48.046;7.642;2023-03-08T13:52:53;3.70;;;3.10;;
2706;SDS011;7819;48.046;7.642;2023-03-08T13:55:24;2.93;;;2.33;;
2706;SDS011;7819;48.046;7.642;2023-03-08T13:57:51;1.63;;;1.23;;
2706;SDS011;7819;48.046;7.642;2023-03-08T14:02:44;1.10;;;1.00;;
2706;SDS011;7819;48.046;7.642;2023-03-08T14:05:20;1.20;;;0.63;;
2706;SDS011;7819;48.046;7.642;2023-03-08T14:07:59;1.10;;;0.70;;
2706;SDS011;7819;48.046;7.642;2023-03-08T14:10:27;2.30;;;1.00;;
2706;SDS011;7819;48.046;7.642;2023-03-08T14:12:54;3.33;;;1.43;;
2706;SDS011;7819;48.046;7.642;2023-03-08T14:15:19;1.30;;;0.70;;
2706;SDS011;7819;48.046;7.642;2023-03-08T14:17:45;1.50;;;0.73;;
2706;SDS011;7819;48.046;7.642;2023-03-08T14:22:44;1.70;;;1.60;;
2706;SDS011;7819;48.046;7.642;2023-03-08T14:25:19;1.33;;;1.00;;
2706;SDS011;7819;48.046;7.642;2023-03-08T14:27:45;1.80;;;0.83;;
2706;SDS011;7819;48.046;7.642;2023-03-08T14:30:12;1.10;;;0.70;;
2706;SDS011;7819;48.046;7.642;2023-03-08T14:32:37;8.33;;;0.93;;
2706;SDS011;7819;48.046;7.642;2023-03-08T14:35:14;1.53;;;0.60;;
2706;SDS011;7819;48.046;7.642;2023-03-08T14:37:42;1.60;;;1.30;;
2706;SDS011;7819;48.046;7.642;2023-03-08T14:40:18;1.80;;;1.60;;
2706;SDS011;7819;48.046;7.642;2023-03-08T14:42:45;2.03;;;1.13;;
2706;SDS011;7819;48.046;7.642;2023-03-08T14:48:21;1.30;;;1.00;;
2706;SDS011;7819;48.046;7.642;2023-03-08T14:51:05;1.40;;;1.17;;
2706;SDS011;7819;48.046;7.642;2023-03-08T14:53:35;2.30;;;0.80;;
2706;SDS011;7819;48.046;7.642;2023-03-08T14:56:04;3.37;;;0.80;;
2706;SDS011;7819;48.046;7.642;2023-03-08T14:58:30;1.23;;;0.50;;
2706;SDS011;7819;48.046;7.642;2023-03-08T15:00:57;2.70;;;2.30;;
2706;SDS011;7819;48.046;7.642;2023-03-08T15:03:23;2.43;;;0.83;;
2706;SDS011;7819;48.046;7.642;2023-03-08T15:05:49;0.90;;;0.70;;
2706;SDS011;7819;48.046;7.642;2023-03-08T15:08:14;1.50;;;1.00;;
2706;SDS011;7819;48.046;7.642;2023-03-08T15:10:40;0.90;;;0.60;;
2706;SDS011;7819;48.046;7.642;2023-03-08T15:13:11;0.90;;;0.50;;
2706;SDS011;7819;48.046;7.642;2023-03-08T15:15:36;1.47;;;0.70;;
2706;SDS011;7819;48.046;7.642;2023-03-08T15:18:01;1.43;;;0.50;;
2706;SDS011;7819;48.046;7.642;2023-03-08T15:20:26;1.73;;;1.10;;
2706;SDS011;7819;48.046;7.642;2023-03-08T15:22:53;2.10;;;1.77;;
2706;SDS011;7819;48.046;7.642;2023-03-08T15:27:47;1.57;;;1.40;;
2706;SDS011;7819;48.046;7.642;2023-03-08T15:30:17;1.20;;;1.07;;
2706;SDS011;7819;48.046;7.642;2023-03-08T15:32:43;1.20;;;0.83;;
2706;SDS011;7819;48.046;7.642;2023-03-08T15:35:08;2.47;;;2.27;;
2706;SDS011;7819;48.046;7.642;2023-03-08T15:37:34;2.13;;;1.30;;
2706;SDS011;7819;48.046;7.642;2023-03-08T15:39:59;1.50;;;1.40;;
2706;SDS011;7819;48.046;7.642;2023-03-08T15:42:24;1.50;;;0.90;;
2706;SDS011;7819;48.046;7.642;2023-03-08T15:44:49;2.23;;;1.80;;
2706;SDS011;7819;48.046;7.642;2023-03-08T15:47:14;3.53;;;1.23;;
2706;SDS011;7819;48.046;7.642;2023-03-08T15:49:40;3.37;;;2.30;;
2706;SDS011;7819;48.046;7.642;2023-03-08T15:52:08;1.30;;;1.20;;
2706;SDS011;7819;48.046;7.642;2023-03-08T15:54:34;2.90;;;2.27;;
2706;SDS011;7819;48.046;7.642;2023-03-08T15:56:59;2.07;;;1.80;;
2706;SDS011;7819;48.046;7.642;2023-03-08T15:59:24;2.40;;;2.20;;
2706;SDS011;7819;48.046;7.642;2023-03-08T16:01:49;2.43;;;1.87;;
2706;SDS011;7819;48.046;7.642;2023-03-08T16:04:14;1.97;;;1.87;;
2706;SDS011;7819;48.046;7.642;2023-03-08T16:06:40;5.03;;;4.50;;
2706;SDS011;7819;48.046;7.642;2023-03-08T16:09:07;3.03;;;2.83;;
2706;SDS011;7819;48.046;7.642;2023-03-08T16:11:32;3.17;;;2.57;;
2706;SDS011;7819;48.046;7.642;2023-03-08T16:13:57;3.63;;;3.43;;
2706;SDS011;7819;48.046;7.642;2023-03-08T16:16:23;2.90;;;2.40;;
2706;SDS011;7819;48.046;7.642;2023-03-08T16:18:48;3.73;;;3.43;;
2706;SDS011;7819;48.046;7.642;2023-03-08T16:21:13;3.80;;;2.30;;
2706;SDS011;7819;48.046;7.642;2023-03-08T16:23:38;4.10;;;2.37;;
2706;SDS011;7819;48.046;7.642;2023-03-08T16:26:10;4.33;;;3.93;;